Latest Coastal Weather Observations for Yanakie

IDV60701

Issued at 12:05 am EST Friday 22 August 2014 (issued every 10 minutes, with the page automatically refreshed every 10 minutes)

About coastal observations | Map of coastal stations | Coastal observations for VIC | Marine services | Other Formats
Station Details ID: 085301 Name: YANAKIE Lat: -38.81 Lon: 146.19 Height: 13.3 m
Data from the previous 72 hours. | See also: Recent months at Yanakie
Date/Time
EST
Temp

°C
Wind Pressure Rain
since 9am
mm
Weather Cloud Vis
km
Sea
Height
m
Swell
Dir
 
Speed
knots
Gust
knots
hPa Trend Height
m
Period
s
Dir
22/12:00am 10.2 E 4 7 1030.7 - 0.0 - - - - - - -
 
Date/Time
EST
Temp

°C
Wind Pressure Rain
since 9am
mm
Weather Cloud Vis
km
Sea
Height
m
Swell
Dir
 
Speed
knots
Gust
knots
hPa Trend Height
m
Period
s
Dir
21/11:30pm 10.3 E 4 6 1030.8 - 0.0 - - - - - - -
21/11:00pm 10.7 E 5 7 1030.9 - 0.0 - - - - - - -
21/10:30pm 10.7 ENE 6 9 1031.0 - 0.0 - - - - - - -
21/10:00pm 10.8 ENE 7 10 1031.0 - 0.0 - - - - - - -
21/09:30pm 11.1 ENE 7 10 1030.9 - 0.0 - - - - - - -
21/09:00pm 11.0 ENE 7 10 1030.8 - 0.0 - - - - - - -
21/08:30pm 11.2 ENE 7 11 1030.8 - 0.0 - - - - - - -
21/08:00pm 11.4 ENE 8 12 1030.6 - 0.0 - - - - - - -
21/07:30pm 11.3 E 7 11 1030.3 - 0.0 - - - - - - -
21/07:00pm 11.3 E 6 10 1030.1 - 0.0 - - - - - - -
21/06:30pm 11.3 E 8 13 1029.8 - 0.0 - - - - - - -
21/06:00pm 11.5 E 9 14 1029.6 - 0.0 - - - - - - -
21/05:30pm 11.8 E 8 12 1029.4 - 0.0 - - - - - - -
21/05:00pm 12.7 E 9 14 1029.0 - 0.0 - - - - - - -
21/04:30pm 13.4 E 9 14 1028.9 - 0.0 - - - - - - -
21/04:00pm 13.9 E 11 17 1028.7 - 0.0 - - - - - - -
21/03:30pm 14.2 E 11 17 1028.5 - 0.0 - - - - - - -
21/03:00pm 14.8 E 9 16 1028.5 - 0.0 - - - - - - -
21/02:30pm 14.9 E 10 17 1028.4 - 0.0 - - - - - - -
21/02:00pm 15.2 E 10 17 1028.6 - 0.0 - - - - - - -
21/01:30pm 14.8 E 11 18 1028.8 - 0.0 - - - - - - -
21/01:00pm 14.6 E 11 18 1029.1 - 0.0 - - - - - - -
21/12:30pm 14.2 E 12 17 1029.3 - 0.0 - - - - - - -
21/12:00pm 14.2 ENE 11 16 1029.7 - 0.0 - - - - - - -
21/11:30am 12.9 ENE 10 15 1030.1 - 0.0 - - - - - - -
21/11:00am 13.4 ENE 11 15 1030.4 - 0.0 - - - - - - -
21/10:30am 12.8 ENE 11 14 1030.4 - 0.0 - - - - - - -
21/10:00am 11.4 ENE 8 11 1030.6 - 0.0 - - - - - - -
21/09:30am 11.9 ENE 8 13 1030.5 - 0.0 - - - - - - -
21/09:00am 11.0 ENE 9 15 1030.4 - 0.2 - - - - - - -
21/08:30am 10.4 ENE 8 11 1030.3 - 0.2 - - - - - - -
21/08:00am 9.6 ENE 7 10 1030.1 - 0.2 - - - - - - -
21/07:30am 8.7 NE 4 7 1029.9 - 0.2 - - - - - - -
21/07:00am 7.2 ENE 3 4 1029.6 - 0.2 - - - - - - -
21/06:30am 7.6 ENE 3 5 1029.5 - 0.2 - - - - - - -
21/06:00am 8.4 ENE 3 5 1029.3 - 0.2 - - - - - - -
21/05:30am 7.8 NE 2 4 1029.2 - 0.2 - - - - - - -
21/05:00am 6.4 E 2 4 1029.0 - 0.2 - - - - - - -
21/04:30am 7.2 E 3 4 1028.8 - 0.2 - - - - - - -
21/04:00am 8.5 E 3 4 1028.7 - 0.2 - - - - - - -
21/03:30am 9.3 ESE 3 4 1028.5 - 0.2 - - - - - - -
21/03:00am 8.8 ESE 2 5 1028.4 - 0.2 - - - - - - -
21/02:30am 8.9 E 2 4 1028.6 - 0.2 - - - - - - -
21/02:00am 8.3 ESE 2 4 1028.7 - 0.2 - - - - - - -
21/01:30am 7.8 ESE 2 3 1028.7 - 0.2 - - - - - - -
21/01:00am 8.0 NE 2 2 1028.8 - 0.2 - - - - - - -
21/12:30am 7.3 E 1 3 1028.9 - 0.2 - - - - - - -
21/12:00am 6.8 ENE 1 2 1028.7 - 0.2 - - - - - - -
 
Date/Time
EST
Temp

°C
Wind Pressure Rain
since 9am
mm
Weather Cloud Vis
km
Sea
Height
m
Swell
Dir
 
Speed
knots
Gust
knots
hPa Trend Height
m
Period
s
Dir
20/11:30pm 6.9 NE 2 3 1028.8 - 0.2 - - - - - - -
20/11:00pm 6.8 E 4 6 1028.8 - 0.2 - - - - - - -
20/10:30pm 5.7 SSE 1 3 1028.7 - 0.2 - - - - - - -
20/10:00pm 7.4 NE 2 3 1028.9 - 0.2 - - - - - - -
20/09:30pm 8.3 N 4 5 1029.0 - 0.2 - - - - - - -
20/09:00pm 8.5 N 3 4 1028.9 - 0.2 - - - - - - -
20/08:30pm 8.1 N 3 4 1028.7 - 0.2 - - - - - - -
20/08:00pm 7.8 N 3 4 1028.6 - 0.2 - - - - - - -
20/07:30pm 7.2 N 1 2 1028.5 - 0.2 - - - - - - -
20/07:00pm 7.4 CALM 0 2 1028.3 - 0.2 - - - - - - -
20/06:30pm 7.3 SSW 2 2 1028.0 - 0.2 - - - - - - -
20/06:00pm 8.0 SSW 3 5 1027.6 - 0.2 - - - - - - -
20/05:30pm 9.7 SSW 3 4 1027.3 - 0.2 - - - - - - -
20/05:00pm 11.2 SSW 5 7 1027.1 - 0.2 - - - - - - -
20/04:30pm 12.1 SSW 6 9 1026.8 - 0.2 - - - - - - -
20/04:00pm 12.3 SW 7 9 1026.6 - 0.2 - - - - - - -
20/03:30pm 12.8 SSW 7 10 1026.4 - 0.2 - - - - - - -
20/03:00pm 13.1 SW 8 11 1026.2 - 0.2 - - - - - - -
20/02:30pm 13.0 SSW 7 10 1026.2 - 0.2 - - - - - - -
20/02:00pm 12.4 SSW 7 10 1026.2 - 0.2 - - - - - - -
20/01:30pm 12.4 SW 6 9 1026.2 - 0.2 - - - - - - -
20/01:00pm 12.1 SW 7 8 1026.4 - 0.2 - - - - - - -
20/12:30pm 11.2 W 4 7 1026.6 - 0.2 - - - - - - -
20/12:00pm 10.8 WSW 7 13 1026.9 - 0.2 - - - - - - -
20/11:30am 11.6 WSW 5 10 1027.0 - 0.2 - - - - - - -
20/11:00am 11.2 WNW 4 5 1027.1 - 0.2 - - - - - - -
20/10:30am 10.0 WNW 3 5 1027.2 - 0.2 - - - - - - -
20/10:00am 9.5 W 6 8 1027.2 - 0.2 - - - - - - -
20/09:30am 10.0 WNW 4 5 1027.1 - 0.0 - - - - - - -
20/09:00am 9.2 NW 4 5 1026.7 - 0.8 Recent precip. - - - - - -
20/08:30am 8.5 WNW 3 5 1026.6 - 0.8 - - - - - - -
20/08:00am 8.4 N 4 6 1026.2 - 0.6 - - - - - - -
20/07:30am 8.1 N 4 6 1026.0 - 0.6 - - - - - - -
20/07:00am 8.0 N 5 6 1025.7 - 0.6 - - - - - - -
20/06:30am 8.3 CALM 0 2 1025.4 - 0.6 - - - - - - -
20/06:00am 8.4 SW 2 4 1025.4 - 0.6 Rain - - - - - -
20/05:30am 8.0 W 3 4 1025.2 - 0.2 - - - - - - -
20/05:00am 8.3 WNW 4 6 1025.1 - 0.2 - - - - - - -
20/04:30am 9.1 W 8 11 1025.1 - 0.2 - - - - - - -
20/04:00am 9.0 WSW 2 5 1025.1 - 0.0 - - - - - - -
20/03:30am 9.3 WNW 4 6 1024.9 - 0.0 - - - - - - -
20/03:00am 8.9 WNW 2 3 1024.9 - 0.0 - - - - - - -
20/02:30am 10.0 SW 6 8 1025.1 - 0.0 - - - - - - -
20/02:00am 9.2 WNW 2 3 1025.2 - 0.0 - - - - - - -
20/01:30am 9.1 WNW 2 4 1025.3 - 0.0 - - - - - - -
20/01:00am 8.2 W 1 3 1025.4 - 0.0 - - - - - - -
20/12:30am 8.6 WSW 1 3 1025.5 - 0.0 - - - - - - -
20/12:00am 8.4 NW 3 5 1025.5 - 0.0 - - - - - - -
 
Date/Time
EST
Temp

°C
Wind Pressure Rain
since 9am
mm
Weather Cloud Vis
km
Sea
Height
m
Swell
Dir
 
Speed
knots
Gust
knots
hPa Trend Height
m
Period
s
Dir
19/11:30pm 8.7 N 3 4 1025.5 - 0.0 - - - - - - -
19/11:00pm 8.6 NNW 4 5 1025.5 - 0.0 - - - - - - -
19/10:30pm 7.9 NW 3 4 1025.6 - 0.0 - - - - - - -
19/10:00pm 8.5 SW 3 3 1025.8 - 0.0 - - - - - - -
19/09:30pm 9.6 SW 3 5 1025.7 - 0.0 - - - - - - -
19/09:00pm 9.1 WSW 5 6 1025.7 - 0.0 - - - - - - -
19/08:30pm 9.3 WSW 7 10 1025.6 - 0.0 - - - - - - -
19/08:00pm 10.1 SW 6 9 1025.4 - 0.0 - - - - - - -
19/07:30pm 10.1 SSW 5 7 1025.2 - 0.0 - - - - - - -
19/07:00pm 10.2 SSW 6 8 1025.0 - 0.0 - - - - - - -
19/06:30pm 10.3 SSW 6 8 1024.8 - 0.0 - - - - - - -
19/06:00pm 8.8 WSW 2 2 1024.4 - 0.0 - - - - - - -
19/05:30pm 8.8 SW 3 3 1024.2 - 0.0 - - - - - - -
19/05:00pm 11.5 SW 5 7 1023.9 - 0.0 - - - - - - -
19/04:30pm 11.8 SSW 5 7 1024.0 - 0.0 - - - - - - -
19/04:00pm 12.0 SW 7 9 1023.9 - 0.0 - - - - - - -
19/03:30pm 12.7 SSW 8 10 1023.8 - 0.0 - - - - - - -
19/03:00pm 12.6 SSW 8 11 1023.8 - 0.0 - - - - - - -
19/02:30pm 12.7 WSW 7 12 1023.8 - 0.0 - - - - - - -
19/02:00pm 12.9 SW 8 10 1023.7 - 0.0 - - - - - - -
19/01:30pm 13.0 SW 7 10 1023.8 - 0.0 - - - - - - -
19/01:00pm 12.4 SW 7 10 1024.0 - 0.0 - - - - - - -
19/12:30pm 12.1 SW 5 7 1024.3 - 0.0 - - - - - - -
19/12:00pm 11.8 W 4 5 1024.5 - 0.0 - - - - - - -
19/11:30am 11.6 W 5 5 1024.7 - 0.0 - - - - - - -
19/11:00am 11.8 W 3 4 1025.0 - 0.0 - - - - - - -
19/10:30am 11.6 W 3 3 1024.8 - 0.0 - - - - - - -
19/10:00am 11.7 W 1 3 1024.8 - 0.0 - - - - - - -
19/09:30am 11.6 CALM 0 0 1024.7 - 0.0 - - - - - - -
19/09:00am 11.3 CALM 0 0 1024.7 - 0.4 - - - - - - -
19/08:30am 10.3 CALM 0 0 1024.6 - 0.4 - - - - - - -
19/08:00am 9.3 CALM 0 0 1024.5 - 0.4 - - - - - - -
19/07:30am 8.6 CALM 0 1 1024.3 - 0.4 - - - - - - -
19/07:00am 8.5 CALM 0 0 1024.0 - 0.4 - - - - - - -
19/06:30am 9.2 SSE 2 2 1023.7 - 0.4 - - - - - - -
19/06:00am 9.6 S 4 5 1023.5 - 0.4 - - - - - - -
19/05:30am 9.7 S 3 5 1023.3 - 0.4 - - - - - - -
19/05:00am 9.5 SSE 3 4 1023.2 - 0.4 - - - - - - -
19/04:30am 9.7 SSE 3 4 1023.1 - 0.4 - - - - - - -
19/04:00am 10.1 S 5 9 1023.1 - 0.4 - - - - - - -
19/03:30am 9.9 S 3 6 1023.0 - 0.4 - - - - - - -
19/03:00am 9.9 SSE 3 4 1023.0 - 0.4 - - - - - - -
19/02:30am 9.7 SSE 3 4 1023.1 - 0.4 - - - - - - -
19/02:00am 10.0 SSE 2 3 1023.2 - 0.4 - - - - - - -
19/01:30am 10.2 S 3 4 1023.2 - 0.4 - - - - - - -
19/01:00am 10.3 S 4 7 1023.2 - 0.4 - - - - - - -
19/12:30am 10.5 S 6 8 1023.2 - 0.4 - - - - - - -

Other Formats:

Comma delimited format used in spreadsheet applications
http://www.bom.gov.au/fwo/IDV60701/IDV60701.94911.axf

JavaScript Object Notation format (JSON) in row-major order
http://www.bom.gov.au/fwo/IDV60701/IDV60701.94911.json